Time;durP1;ratioP1;P1;durP2;ratioP2;P2;SDS_P1;SDS_P2;PMS_P1;PMS_P2;Temp;Humidity;BMP_temperature;BMP_pressure;BME280_temperature;BME280_humidity;BME280_pressure;Samples;Min_cycle;Max_cycle;Signal;HPM_P1;HPM_P2
2022/04/06 00:03:15;;;;;;;17.40;12.50;;;;;;;;;;10337582;28;20050;-67
2022/04/06 00:08:18;;;;;;;29.48;17.98;;;;;;;;;;10331806;28;20058;-68
2022/04/06 00:13:22;;;;;;;26.98;18.85;;;;;;;;;;10311413;28;20204;-68
2022/04/06 00:18:24;;;;;;;29.20;21.02;;;;;;;;;;10324839;28;20054;-67
2022/04/06 00:23:26;;;;;;;38.33;25.42;;;;;;;;;;10309986;28;20058;-67
2022/04/06 00:28:30;;;;;;;33.67;19.60;;;;;;;;;;10310707;28;20051;-68
2022/04/06 00:33:32;;;;;;;18.55;11.73;;;;;;;;;;10311181;28;20066;-67
2022/04/06 00:38:34;;;;;;;16.23;9.65;;;;;;;;;;10309681;28;20039;-67
2022/04/06 00:43:38;;;;;;;12.35;7.10;;;;;;;;;;10309192;28;20050;-68
2022/04/06 00:48:41;;;;;;;10.60;6.03;;;;;;;;;;10307249;28;20094;-67
2022/04/06 00:53:43;;;;;;;9.07;5.53;;;;;;;;;;10342758;28;20042;-67
2022/04/06 00:58:47;;;;;;;6.93;4.93;;;;;;;;;;10310050;28;20313;-67
2022/04/06 01:03:50;;;;;;;11.27;5.20;;;;;;;;;;10307206;28;20062;-67
2022/04/06 01:08:53;;;;;;;9.23;5.70;;;;;;;;;;10322330;28;20046;-67
2022/04/06 01:13:58;;;;;;;10.25;5.68;;;;;;;;;;10307856;28;20057;-67
2022/04/06 01:19:00;;;;;;;13.63;5.88;;;;;;;;;;10314394;28;20070;-67
2022/04/06 01:24:04;;;;;;;11.45;6.80;;;;;;;;;;10316526;28;20376;-67
2022/04/06 01:29:06;;;;;;;12.30;6.30;;;;;;;;;;10316442;28;20069;-67
2022/04/06 01:34:09;;;;;;;12.95;6.13;;;;;;;;;;10316650;28;20054;-67
2022/04/06 01:39:13;;;;;;;10.10;6.43;;;;;;;;;;10354615;28;20046;-67
2022/04/06 01:44:15;;;;;;;9.98;5.50;;;;;;;;;;10317660;28;20050;-66
2022/04/06 01:54:35;;;;;;;8.38;5.32;;;;;;;;;;10309993;28;20055;-67
2022/04/06 01:59:38;;;;;;;15.30;5.57;;;;;;;;;;10315988;28;20055;-67
2022/04/06 02:04:41;;;;;;;25.88;6.53;;;;;;;;;;10314978;28;20168;-67
2022/04/06 02:09:45;;;;;;;15.48;7.38;;;;;;;;;;10314797;28;20051;-67
2022/04/06 02:14:48;;;;;;;17.77;7.20;;;;;;;;;;10314564;28;20258;-67
2022/04/06 02:19:50;;;;;;;13.23;6.85;;;;;;;;;;10314383;28;20225;-67
2022/04/06 02:24:54;;;;;;;20.38;8.60;;;;;;;;;;10355024;28;20050;-67
2022/04/06 02:29:56;;;;;;;23.05;8.27;;;;;;;;;;10354964;28;20070;-67
2022/04/06 02:34:58;;;;;;;21.10;8.88;;;;;;;;;;10346251;28;20051;-67
2022/04/06 02:40:02;;;;;;;30.92;11.68;;;;;;;;;;10314770;28;20054;-67
2022/04/06 02:45:05;;;;;;;26.70;12.35;;;;;;;;;;10313900;28;20050;-66
2022/04/06 02:50:08;;;;;;;32.45;12.43;;;;;;;;;;10315405;28;20042;-67
2022/04/06 02:55:12;;;;;;;27.15;13.15;;;;;;;;;;10313967;28;20046;-68
2022/04/06 03:00:16;;;;;;;27.48;12.32;;;;;;;;;;10313735;28;20055;-67
2022/04/06 03:05:18;;;;;;;24.70;11.27;;;;;;;;;;10319975;28;20062;-68
2022/04/06 03:10:22;;;;;;;22.63;11.60;;;;;;;;;;10354085;28;20437;-67
2022/04/06 03:15:25;;;;;;;23.55;11.35;;;;;;;;;;10352915;28;20214;-68
2022/04/06 03:20:27;;;;;;;19.58;11.80;;;;;;;;;;10319511;28;20045;-68
2022/04/06 03:25:31;;;;;;;24.73;11.63;;;;;;;;;;10312782;28;20258;-68
2022/04/06 03:30:33;;;;;;;22.10;11.88;;;;;;;;;;10313021;28;20046;-68
2022/04/06 03:35:36;;;;;;;23.42;13.02;;;;;;;;;;10316686;28;20341;-67
2022/04/06 03:40:39;;;;;;;28.58;13.98;;;;;;;;;;10352020;28;20042;-67
2022/04/06 03:45:42;;;;;;;28.88;13.57;;;;;;;;;;10324057;28;20223;-68
2022/04/06 03:50:44;;;;;;;22.35;12.73;;;;;;;;;;10326990;28;20039;-67
2022/04/06 03:55:48;;;;;;;25.17;12.98;;;;;;;;;;10311495;28;20211;-67
2022/04/06 04:00:50;;;;;;;27.08;13.55;;;;;;;;;;10310527;28;20185;-68
2022/04/06 04:05:53;;;;;;;29.02;14.82;;;;;;;;;;10311051;28;20334;-66
2022/04/06 04:10:57;;;;;;;26.35;14.18;;;;;;;;;;10310902;28;20042;-68
2022/04/06 04:15:59;;;;;;;32.13;15.05;;;;;;;;;;10310721;28;20058;-67
2022/04/06 04:26:22;;;;;;;39.45;24.02;;;;;;;;;;10323398;28;20053;-67
2022/04/06 04:31:25;;;;;;;42.88;26.73;;;;;;;;;;10310801;28;20046;-67
2022/04/06 04:36:27;;;;;;;44.78;27.05;;;;;;;;;;10308957;28;20057;-67
2022/04/06 04:41:31;;;;;;;47.33;28.08;;;;;;;;;;10312607;28;20139;-66
2022/04/06 04:46:34;;;;;;;46.70;27.15;;;;;;;;;;10312674;28;20054;-67
2022/04/06 04:51:37;;;;;;;51.03;29.98;;;;;;;;;;10313527;28;20139;-68
2022/04/06 04:56:42;;;;;;;38.40;21.27;;;;;;;;;;10312211;28;20369;-70
2022/04/06 05:01:45;;;;;;;40.15;24.35;;;;;;;;;;10322423;28;20058;-68
2022/04/06 05:06:47;;;;;;;46.05;27.08;;;;;;;;;;10309598;28;20062;-68
2022/04/06 05:11:51;;;;;;;65.53;31.35;;;;;;;;;;10305546;28;20065;-68
2022/04/06 05:16:53;;;;;;;41.47;20.73;;;;;;;;;;10312840;28;20055;-68
2022/04/06 05:21:56;;;;;;;45.75;21.88;;;;;;;;;;10309581;28;20038;-67
2022/04/06 05:27:00;;;;;;;55.60;25.80;;;;;;;;;;10309787;28;20055;-68
2022/04/06 05:32:02;;;;;;;57.95;27.13;;;;;;;;;;10319090;28;20047;-68
2022/04/06 05:37:05;;;;;;;42.80;22.38;;;;;;;;;;10312102;28;20046;-67
2022/04/06 05:42:09;;;;;;;44.63;23.73;;;;;;;;;;10308364;28;20042;-67
2022/04/06 05:47:12;;;;;;;53.45;25.48;;;;;;;;;;10309311;28;20046;-66
2022/04/06 05:52:15;;;;;;;48.72;24.02;;;;;;;;;;10308165;28;20055;-67
2022/04/06 05:57:19;;;;;;;51.05;26.08;;;;;;;;;;10309455;28;20071;-67
2022/04/06 06:02:23;;;;;;;55.50;26.08;;;;;;;;;;10308387;28;20106;-67
2022/04/06 06:07:26;;;;;;;81.72;37.97;;;;;;;;;;10315868;28;20070;-67
2022/04/06 06:12:30;;;;;;;73.72;32.38;;;;;;;;;;10315878;28;20050;-68
2022/04/06 06:17:37;;;;;;;44.47;22.33;;;;;;;;;;10315689;28;20046;-67
2022/04/06 06:22:40;;;;;;;44.30;21.25;;;;;;;;;;10328992;28;20046;-69
2022/04/06 06:27:46;;;;;;;26.73;16.60;;;;;;;;;;10315299;28;20062;-68
2022/04/06 06:32:48;;;;;;;;;;;;;;;;;;10342032;28;20042;-68
2022/04/06 06:37:52;;;;;;;45.78;24.02;;;;;;;;;;10314011;28;19925;-68
2022/04/06 06:42:56;;;;;;;28.70;16.15;;;;;;;;;;10315197;28;20055;-69
2022/04/06 06:47:58;;;;;;;24.25;15.52;;;;;;;;;;10314996;28;20369;-66
2022/04/06 06:53:01;;;;;;;29.00;18.23;;;;;;;;;;10314311;28;20102;-67
2022/04/06 06:58:05;;;;;;;30.50;18.58;;;;;;;;;;10314258;28;20109;-67
2022/04/06 07:03:07;;;;;;;61.35;33.90;;;;;;;;;;10313717;28;20050;-69
2022/04/06 07:08:10;;;;;;;55.10;32.85;;;;;;;;;;10313447;28;20253;-70
2022/04/06 07:13:16;;;;;;;74.30;44.50;;;;;;;;;;10313278;28;20334;-70
2022/04/06 07:18:21;;;;;;;47.95;27.13;;;;;;;;;;10326852;28;20310;-68
2022/04/06 07:23:24;;;;;;;49.40;25.27;;;;;;;;;;10312416;28;20098;-67
2022/04/06 07:28:27;;;;;;;99.13;45.88;;;;;;;;;;10314847;28;20273;-67
2022/04/06 07:33:30;;;;;;;68.30;32.15;;;;;;;;;;10321527;28;20089;-69
2022/04/06 07:38:32;;;;;;;42.90;24.58;;;;;;;;;;10342281;28;20049;-70
2022/04/06 07:43:36;;;;;;;54.08;28.95;;;;;;;;;;10313199;28;20051;-68
2022/04/06 07:48:41;;;;;;;35.25;19.83;;;;;;;;;;10311288;28;20056;-70
2022/04/06 07:53:44;;;;;;;31.73;18.00;;;;;;;;;;10326781;28;20049;-71
2022/04/06 07:58:51;;;;;;;29.42;18.00;;;;;;;;;;10313145;28;20094;-68
2022/04/06 08:03:54;;;;;;;40.03;20.02;;;;;;;;;;10321061;28;20045;-71
2022/04/06 08:08:56;;;;;;;46.35;22.38;;;;;;;;;;10325650;28;20081;-68
2022/04/06 08:14:00;;;;;;;33.88;18.08;;;;;;;;;;10312110;28;20042;-68
2022/04/06 08:19:03;;;;;;;30.23;16.30;;;;;;;;;;10311217;28;20054;-68
2022/04/06 08:24:06;;;;;;;41.28;22.15;;;;;;;;;;10320942;28;20042;-71
2022/04/06 08:29:10;;;;;;;23.40;14.77;;;;;;;;;;10352290;28;20149;-72
2022/04/06 08:34:13;;;;;;;20.67;13.23;;;;;;;;;;10322843;28;20047;-69
2022/04/06 08:39:37;;;;;;;21.58;13.90;;;;;;;;;;10310443;28;20333;-67
2022/04/06 08:44:40;;;;;;;17.45;13.57;;;;;;;;;;10310695;28;20050;-69
2022/04/06 08:49:46;;;;;;;23.70;14.73;;;;;;;;;;10310245;28;20053;-71
2022/04/06 08:54:49;;;;;;;61.28;24.00;;;;;;;;;;10310409;28;20050;-69
2022/04/06 08:59:52;;;;;;;39.13;18.60;;;;;;;;;;10316472;28;20123;-70
2022/04/06 09:04:56;;;;;;;63.38;26.17;;;;;;;;;;10329482;28;20262;-68
2022/04/06 09:09:59;;;;;;;47.42;21.90;;;;;;;;;;10307806;28;20046;-68
2022/04/06 09:15:08;;;;;;;27.10;19.10;;;;;;;;;;10309930;28;20089;-70
2022/04/06 09:20:11;;;;;;;22.75;16.95;;;;;;;;;;10309137;28;20239;-70
2022/04/06 09:25:14;;;;;;;19.05;15.23;;;;;;;;;;10329071;28;20070;-68
2022/04/06 09:30:19;;;;;;;32.35;24.58;;;;;;;;;;10334582;28;20050;-67
2022/04/06 09:35:26;;;;;;;46.87;32.70;;;;;;;;;;10349755;28;20054;-67
2022/04/06 09:40:29;;;;;;;32.20;21.58;;;;;;;;;;10348891;28;20358;-69
2022/04/06 09:50:55;;;;;;;27.42;19.00;;;;;;;;;;10317151;28;20241;-67
2022/04/06 09:55:58;;;;;;;23.45;18.13;;;;;;;;;;10341652;28;20042;-68
2022/04/06 10:01:02;;;;;;;22.95;17.52;;;;;;;;;;10322541;28;20058;-70
2022/04/06 10:06:08;;;;;;;20.55;17.98;;;;;;;;;;10313130;28;20055;-68
2022/04/06 10:11:12;;;;;;;22.48;17.95;;;;;;;;;;10356929;28;20094;-68
2022/04/06 10:16:20;;;;;;;17.80;15.93;;;;;;;;;;10315365;28;20069;-68
2022/04/06 10:21:29;;;;;;;23.90;18.15;;;;;;;;;;10313006;28;20273;-69
2022/04/06 10:26:37;;;;;;;20.45;13.48;;;;;;;;;;10347834;28;20043;-68
2022/04/06 10:31:41;;;;;;;14.45;12.80;;;;;;;;;;10328331;28;20055;-69
2022/04/06 10:36:44;;;;;;;14.63;12.38;;;;;;;;;;10313972;28;20038;-67
2022/04/06 10:42:15;;;;;;;11.70;10.50;;;;;;;;;;10338411;28;20034;-67
2022/04/06 10:47:21;;;;;;;8.30;7.47;;;;;;;;;;10313407;28;20039;-68
2022/04/06 10:52:26;;;;;;;8.45;7.63;;;;;;;;;;10325670;28;20049;-68
2022/04/06 10:57:56;;;;;;;10.82;6.72;;;;;;;;;;10322755;28;20354;-69
2022/04/06 11:03:15;;;;;;;6.32;5.63;;;;;;;;;;10327348;28;20038;-68
2022/04/06 11:14:11;;;;;;;11.93;10.65;;;;;;;;;;10348391;28;20050;-68
2022/04/06 11:19:16;;;;;;;11.05;9.68;;;;;;;;;;10354052;28;20073;-68
2022/04/06 11:24:20;;;;;;;12.05;9.10;;;;;;;;;;10326600;28;20171;-69
2022/04/06 11:29:26;;;;;;;15.10;9.52;;;;;;;;;;10333491;28;20055;-69
2022/04/06 11:34:35;;;;;;;14.13;10.10;;;;;;;;;;10314650;28;20339;-69
2022/04/06 11:39:38;;;;;;;13.23;9.93;;;;;;;;;;10311082;28;20069;-68
2022/04/06 11:44:40;;;;;;;15.38;10.30;;;;;;;;;;10335739;28;20050;-68
2022/04/06 11:49:43;;;;;;;14.50;10.77;;;;;;;;;;10352896;28;20054;-68
2022/04/06 11:54:51;;;;;;;12.50;10.70;;;;;;;;;;10342351;28;20051;-68
2022/04/06 11:59:54;;;;;;;14.00;11.65;;;;;;;;;;10349480;28;20046;-69
2022/04/06 12:05:03;;;;;;;14.98;11.82;;;;;;;;;;10311348;28;20070;-68
2022/04/06 12:10:06;;;;;;;21.90;13.32;;;;;;;;;;10311620;28;20055;-69
2022/04/06 12:15:10;;;;;;;16.58;12.93;;;;;;;;;;10333559;28;20034;-69
2022/04/06 12:20:25;;;;;;;16.93;12.27;;;;;;;;;;10324273;28;20046;-68
2022/04/06 12:25:28;;;;;;;15.05;11.70;;;;;;;;;;10323857;28;20042;-68
2022/04/06 12:30:31;;;;;;;20.70;12.88;;;;;;;;;;10328809;28;20046;-68
2022/04/06 12:35:34;;;;;;;14.10;10.65;;;;;;;;;;10329977;28;20042;-70
2022/04/06 12:40:37;;;;;;;16.65;11.45;;;;;;;;;;10339666;28;20042;-69
2022/04/06 12:45:50;;;;;;;18.58;14.45;;;;;;;;;;10326698;28;20054;-68
2022/04/06 12:50:55;;;;;;;20.65;14.40;;;;;;;;;;10336630;28;20054;-70
2022/04/06 12:56:10;;;;;;;18.17;11.93;;;;;;;;;;10321002;28;20042;-68
2022/04/06 13:01:13;;;;;;;14.73;10.75;;;;;;;;;;10310574;28;20101;-67
2022/04/06 13:06:18;;;;;;;14.90;9.80;;;;;;;;;;10333394;28;20066;-69
2022/04/06 13:11:20;;;;;;;17.40;10.85;;;;;;;;;;10319269;28;20055;-69
2022/04/06 13:16:27;;;;;;;16.08;10.10;;;;;;;;;;10334048;28;20038;-68
2022/04/06 13:21:33;;;;;;;16.50;12.25;;;;;;;;;;10352844;28;20093;-69
2022/04/06 13:26:36;;;;;;;22.67;13.35;;;;;;;;;;10367791;28;20054;-70
2022/04/06 13:31:41;;;;;;;22.60;13.65;;;;;;;;;;10350127;28;20054;-72
2022/04/06 13:36:45;;;;;;;22.45;11.23;;;;;;;;;;10351801;28;20262;-71
2022/04/06 13:41:52;;;;;;;17.02;10.75;;;;;;;;;;10334277;28;20042;-70
2022/04/06 13:46:55;;;;;;;19.92;12.25;;;;;;;;;;10357615;28;20064;-70
2022/04/06 13:52:02;;;;;;;24.45;13.40;;;;;;;;;;10359088;28;20046;-69
2022/04/06 13:57:04;;;;;;;22.95;15.13;;;;;;;;;;10328862;28;20254;-69
2022/04/06 14:02:07;;;;;;;32.85;16.85;;;;;;;;;;10322401;28;20085;-68
2022/04/06 14:07:11;;;;;;;24.33;15.02;;;;;;;;;;10315032;28;20310;-68
2022/04/06 14:12:16;;;;;;;26.40;15.30;;;;;;;;;;10354432;28;20046;-69
2022/04/06 14:17:19;;;;;;;25.83;16.00;;;;;;;;;;10320374;28;20054;-68
2022/04/06 14:22:25;;;;;;;25.60;15.10;;;;;;;;;;10317489;28;20580;-67
2022/04/06 14:27:27;;;;;;;20.98;14.05;;;;;;;;;;10328884;28;20043;-69
2022/04/06 14:32:29;;;;;;;18.75;12.70;;;;;;;;;;10341559;28;20069;-67
2022/04/06 14:37:33;;;;;;;15.95;10.52;;;;;;;;;;10353389;28;20338;-67
2022/04/06 14:42:35;;;;;;;17.23;11.02;;;;;;;;;;10342322;28;20069;-67
2022/04/06 14:47:39;;;;;;;21.98;12.07;;;;;;;;;;10312840;28;20346;-67
2022/04/06 14:52:45;;;;;;;15.88;11.60;;;;;;;;;;10328611;28;20050;-69
2022/04/06 14:57:48;;;;;;;18.10;12.25;;;;;;;;;;10324543;28;20042;-67
2022/04/06 15:02:50;;;;;;;19.27;13.20;;;;;;;;;;10343257;28;20050;-68
2022/04/06 15:07:55;;;;;;;20.50;13.32;;;;;;;;;;10312833;28;20501;-68
2022/04/06 15:12:59;;;;;;;21.77;14.50;;;;;;;;;;10337785;28;20086;-68
2022/04/06 15:18:03;;;;;;;18.83;12.93;;;;;;;;;;10314506;28;20344;-68
2022/04/06 15:23:07;;;;;;;20.35;13.40;;;;;;;;;;10330794;28;20342;-71
2022/04/06 15:28:09;;;;;;;21.73;14.00;;;;;;;;;;10313467;28;20238;-68
2022/04/06 15:33:13;;;;;;;19.20;12.13;;;;;;;;;;10345826;28;20241;-69
2022/04/06 15:38:17;;;;;;;16.83;11.60;;;;;;;;;;10353436;28;20330;-69
2022/04/06 15:43:19;;;;;;;15.30;10.82;;;;;;;;;;10354621;28;20457;-68
2022/04/06 15:48:22;;;;;;;17.20;11.25;;;;;;;;;;10320280;28;20058;-68
2022/04/06 15:53:26;;;;;;;15.85;10.15;;;;;;;;;;10316089;28;20043;-68
2022/04/06 15:58:28;;;;;;;14.65;10.07;;;;;;;;;;10347929;28;20046;-68
2022/04/06 16:03:30;;;;;;;17.08;9.52;;;;;;;;;;10351145;28;20053;-68
2022/04/06 16:08:35;;;;;;;16.27;10.25;;;;;;;;;;10330280;28;20055;-69
2022/04/06 16:13:37;;;;;;;16.10;9.90;;;;;;;;;;10345092;28;20045;-69
2022/04/06 16:18:40;;;;;;;16.45;9.88;;;;;;;;;;10313220;28;20043;-69
2022/04/06 16:23:47;;;;;;;16.00;9.93;;;;;;;;;;10331064;28;20266;-70
2022/04/06 16:28:50;;;;;;;16.48;10.70;;;;;;;;;;10352876;28;20053;-68
2022/04/06 16:33:52;;;;;;;20.38;11.95;;;;;;;;;;10352566;28;20061;-69
2022/04/06 16:39:00;;;;;;;15.98;10.93;;;;;;;;;;10349448;28;20050;-69
2022/04/06 16:44:04;;;;;;;18.05;13.63;;;;;;;;;;10341985;28;20046;-67
2022/04/06 16:49:08;;;;;;;28.33;19.90;;;;;;;;;;10311076;28;20077;-67
2022/04/06 16:54:13;;;;;;;23.83;14.47;;;;;;;;;;10322655;28;20038;-68
2022/04/06 16:59:16;;;;;;;18.80;13.90;;;;;;;;;;10346086;28;20046;-69
2022/04/06 17:04:19;;;;;;;19.80;12.77;;;;;;;;;;10348799;28;20058;-67
2022/04/06 17:09:25;;;;;;;19.98;11.68;;;;;;;;;;10311563;28;20058;-68
2022/04/06 17:14:27;;;;;;;16.67;11.98;;;;;;;;;;10324144;28;20057;-67
2022/04/06 17:19:29;;;;;;;19.52;10.95;;;;;;;;;;10326918;28;20049;-67
2022/04/06 17:24:33;;;;;;;20.02;11.77;;;;;;;;;;10322840;28;20050;-69
2022/04/06 17:29:41;;;;;;;20.88;12.05;;;;;;;;;;10345842;28;20262;-68
2022/04/06 17:34:44;;;;;;;26.70;17.75;;;;;;;;;;10330817;28;20077;-68
2022/04/06 17:39:47;;;;;;;15.77;9.55;;;;;;;;;;10309526;28;20334;-68
2022/04/06 17:44:50;;;;;;;14.20;9.52;;;;;;;;;;10329307;28;20042;-70
2022/04/06 17:49:52;;;;;;;15.93;11.45;;;;;;;;;;10326935;28;20047;-69
2022/04/06 17:54:57;;;;;;;26.63;17.48;;;;;;;;;;10346107;28;20057;-69
2022/04/06 17:59:59;;;;;;;29.48;17.35;;;;;;;;;;10358391;28;20042;-68
2022/04/06 18:05:03;;;;;;;31.88;17.73;;;;;;;;;;10355523;28;20092;-68
2022/04/06 18:10:09;;;;;;;27.65;15.40;;;;;;;;;;10321309;28;20054;-67
2022/04/06 18:15:11;;;;;;;26.80;14.13;;;;;;;;;;10330063;28;20047;-69
2022/04/06 18:20:14;;;;;;;20.42;11.93;;;;;;;;;;10336539;28;20046;-69
2022/04/06 18:25:18;;;;;;;28.23;14.40;;;;;;;;;;10316539;28;20043;-68
2022/04/06 18:30:20;;;;;;;41.05;21.30;;;;;;;;;;10327399;28;20049;-69
2022/04/06 18:35:26;;;;;;;38.28;22.08;;;;;;;;;;10330743;28;20042;-68
2022/04/06 18:40:30;;;;;;;33.70;18.10;;;;;;;;;;10316092;28;20051;-70
2022/04/06 18:45:32;;;;;;;22.70;12.73;;;;;;;;;;10334229;28;20039;-70
2022/04/06 18:50:38;;;;;;;20.70;13.82;;;;;;;;;;10341044;28;20046;-68
2022/04/06 18:55:42;;;;;;;25.52;14.30;;;;;;;;;;10314742;28;20054;-68
2022/04/06 19:00:44;;;;;;;25.55;15.55;;;;;;;;;;10323276;28;20054;-68
2022/04/06 19:05:48;;;;;;;27.70;17.42;;;;;;;;;;10314161;28;20062;-69
2022/04/06 19:10:53;;;;;;;44.03;23.05;;;;;;;;;;10336501;28;20066;-69
2022/04/06 19:15:56;;;;;;;39.72;21.95;;;;;;;;;;10315025;28;20059;-68
2022/04/06 19:20:58;;;;;;;40.08;20.08;;;;;;;;;;10318549;28;20039;-67
2022/04/06 19:26:02;;;;;;;37.03;21.00;;;;;;;;;;10313660;28;20257;-68
2022/04/06 19:31:08;;;;;;;38.28;21.65;;;;;;;;;;10345058;28;20046;-68
2022/04/06 19:36:12;;;;;;;35.88;21.85;;;;;;;;;;10347481;28;20089;-68
2022/04/06 19:41:16;;;;;;;36.95;19.55;;;;;;;;;;10342952;28;20050;-68
2022/04/06 19:46:19;;;;;;;35.60;21.20;;;;;;;;;;10351114;28;20274;-69
2022/04/06 19:51:23;;;;;;;37.72;21.10;;;;;;;;;;10333560;28;20062;-68
2022/04/06 19:56:26;;;;;;;39.42;23.33;;;;;;;;;;10328324;28;20065;-68
2022/04/06 20:01:31;;;;;;;41.40;21.67;;;;;;;;;;10339584;28;20066;-70
2022/04/06 20:06:34;;;;;;;40.70;23.93;;;;;;;;;;10332039;28;20062;-68
2022/04/06 20:11:38;;;;;;;35.38;23.50;;;;;;;;;;10330881;28;20057;-67
2022/04/06 20:16:42;;;;;;;44.40;24.85;;;;;;;;;;10337276;28;20046;-68
2022/04/06 20:21:45;;;;;;;44.80;23.60;;;;;;;;;;10311295;28;20061;-68
2022/04/06 20:26:48;;;;;;;49.95;25.05;;;;;;;;;;10311483;28;20082;-68
2022/04/06 20:31:50;;;;;;;39.53;23.58;;;;;;;;;;10312139;28;20049;-68
2022/04/06 20:36:53;;;;;;;45.35;24.23;;;;;;;;;;10326922;28;20389;-66
2022/04/06 20:41:56;;;;;;;41.45;22.73;;;;;;;;;;10310752;28;20330;-68
2022/04/06 20:46:59;;;;;;;39.90;23.85;;;;;;;;;;10325072;28;20045;-66
2022/04/06 20:52:02;;;;;;;44.05;23.92;;;;;;;;;;10311222;28;20085;-68
2022/04/06 20:57:06;;;;;;;45.38;26.42;;;;;;;;;;10326731;28;20122;-68
2022/04/06 21:02:09;;;;;;;57.47;32.87;;;;;;;;;;10324824;28;20089;-68
2022/04/06 21:07:12;;;;;;;50.05;33.28;;;;;;;;;;10339965;28;20073;-68
2022/04/06 21:12:15;;;;;;;40.97;26.10;;;;;;;;;;10310470;28;20049;-67
2022/04/06 21:17:18;;;;;;;44.30;25.45;;;;;;;;;;10326508;28;20046;-68
2022/04/06 21:22:20;;;;;;;43.70;27.40;;;;;;;;;;10318636;28;20046;-69
2022/04/06 21:27:23;;;;;;;46.47;26.90;;;;;;;;;;10339255;28;20326;-69
2022/04/06 21:32:27;;;;;;;48.30;28.48;;;;;;;;;;10318877;28;20219;-67
2022/04/06 21:37:29;;;;;;;50.38;28.50;;;;;;;;;;10315743;28;20043;-68
2022/04/06 21:42:33;;;;;;;54.08;30.08;;;;;;;;;;10317616;28;20050;-67
2022/04/06 21:47:35;;;;;;;48.17;29.13;;;;;;;;;;10318365;28;20051;-66
2022/04/06 21:52:38;;;;;;;50.88;28.70;;;;;;;;;;10317144;28;20054;-68
2022/04/06 21:57:42;;;;;;;49.85;30.25;;;;;;;;;;10317595;28;20090;-68
2022/04/06 22:02:44;;;;;;;48.50;29.85;;;;;;;;;;10326438;28;20058;-68
2022/04/06 22:07:47;;;;;;;43.70;27.13;;;;;;;;;;10317103;28;20066;-68
2022/04/06 22:12:50;;;;;;;52.03;29.70;;;;;;;;;;10316039;28;20050;-68
2022/04/06 22:17:53;;;;;;;51.83;29.65;;;;;;;;;;10317131;28;20059;-67
2022/04/06 22:22:55;;;;;;;49.45;29.70;;;;;;;;;;10315552;28;20062;-69
2022/04/06 22:27:59;;;;;;;51.05;29.65;;;;;;;;;;10315922;28;20059;-68
2022/04/06 22:33:02;;;;;;;66.35;36.65;;;;;;;;;;10316535;28;20051;-67
2022/04/06 22:38:04;;;;;;;71.30;38.60;;;;;;;;;;10316645;28;20058;-69
2022/04/06 22:43:08;;;;;;;68.97;37.63;;;;;;;;;;10325863;28;20223;-67
2022/04/06 22:48:10;;;;;;;51.63;31.27;;;;;;;;;;10313902;28;20230;-67
2022/04/06 22:53:13;;;;;;;51.83;29.98;;;;;;;;;;10340124;28;20046;-67
2022/04/06 22:58:17;;;;;;;48.10;29.25;;;;;;;;;;10354798;28;20042;-68
2022/04/06 23:03:19;;;;;;;53.47;30.05;;;;;;;;;;10328744;28;20254;-67
2022/04/06 23:08:22;;;;;;;52.67;31.80;;;;;;;;;;10353547;28;20064;-68
2022/04/06 23:13:25;;;;;;;59.10;32.97;;;;;;;;;;10349366;28;20056;-67
2022/04/06 23:18:27;;;;;;;56.20;33.72;;;;;;;;;;10313132;28;20038;-67
2022/04/06 23:23:30;;;;;;;51.55;33.10;;;;;;;;;;10312589;28;20478;-67
2022/04/06 23:28:37;;;;;;;57.55;34.80;;;;;;;;;;10313453;28;20043;-67
2022/04/06 23:33:40;;;;;;;53.83;34.20;;;;;;;;;;10326618;28;20066;-67
2022/04/06 23:38:42;;;;;;;65.75;37.30;;;;;;;;;;10313068;28;20042;-67
2022/04/06 23:43:45;;;;;;;63.42;37.22;;;;;;;;;;10324529;28;20375;-67
2022/04/06 23:48:48;;;;;;;62.00;37.75;;;;;;;;;;10351275;28;20056;-68
2022/04/06 23:53:50;;;;;;;59.03;34.60;;;;;;;;;;10312450;28;20053;-67
2022/04/06 23:58:54;;;;;;;61.47;34.30;;;;;;;;;;10310870;28;20051;-68
